Cleavesville, Missouri
Current Conditions -  °F | °C
As of 4:53 PM on Saturday 25 Oct 2014 (Local Time) from KVIH Reporting Station
Clear Clear  
Wind Chill: 79°   Ceiling: Unl
Heat Index: 80°   Visibility: 10mi
Dew Point: 59°   Wind: 0mph
Humidity: 50%   Direction: NA
Pressure: 30.03"   Gusts: NA
Location:  38.3239°N, 91.6268°W
Report Text: KVIH 252153Z AUTO 00000KT 10SM CLR 26/15 A3003 RMK AO2 SLP159 T02610150
Loading
Personal Weather Stations






























Interactive Weather Map
Tropical Storm Tracking
New forecast layout! Learn more

10-Day Weather Forecast

Advertisements
Track Severe Weather on mobile